George, IA (51237)

1:02 PM CST on February 14, 2016 (GMT -0600)
APRSWXNET | | Change Station
CLOSE
Current Station
Personal Weather Station
Location: Ashton, IA
Elevation: 1469 ft
Nearby Weather Stations

Elev 1469 ft 43.31 °N, 95.79 °W | Updated 29 minutes ago

Overcast
Overcast
18 °F
Feels Like 11 °F
N
5
Wind Variable Wind from SSE
Gusts 0.0 mph

Today
High -- | Low -- °F
--% Chance of Precip.
Yesterday
High -- | Low -- °F
Precip. -- in
Pressure 29.82 in
Visibility 10.0 miles
Clouds Overcast 1200 ft
Windchill 11 °F
Dew Point 16 °F
Humidity 91%
Rainfall in
Snow Depth Not available.
7:24 AM 5:52 PM
Waxing Crescent, 44% visible
METAR KSHL 141835Z AUTO 15009KT 10SM OVC012 M07/M09 A2982 RMK AO2
Pressure 29.82 in
Visibility 10.0 miles
Clouds Overcast 1200 ft
Windchill 11 °F
Dew Point 16 °F
Humidity 91%
Rainfall in
Snow Depth Not available.
7:24 AM 5:52 PM
Waxing Crescent, 44% visible
METAR KSHL 141835Z AUTO 15009KT 10SM OVC012 M07/M09 A2982 RMK AO2

10-Day Weather Forecast

Almanac

Astronomy

Feb. 14, 2016 Rise Set
Actual Time
Civil Twilight
Nautical Twilight
Astronomical Twilight
Moon
Length of Visible Light
Length of Day
Tomorrow will be .
, % of the Moon is Illuminated

Today's Extremes

State Highs State Lows

Community

WunderPhotos

Upload Photos

1,892,874 photos uploaded!

WunderBlog® & News

Nearby

Air Quality

  Air Quality AQ Index Pollutant
Not available.

Snow Depth

Station Depth Elevation

Earthquake Activity

City Distance Mag. Time & Date
Minimum magnitude displayed is 2.5.

Coastal Water Temperatures

Place Temperature

Stations

Nearby Weather Stations

Station Location Temp. Windchill Dew Point Humidity Wind Precip. Elev Updated Type
                   

Watches & Warnings

There are currently no watches in effect.